Time;durP1;ratioP1;P1;durP2;ratioP2;P2;SDS_P1;SDS_P2;PMS_P1;PMS_P2;Temp;Humidity;BMP_temperature;BMP_pressure;BME280_temperature;BME280_humidity;BME280_pressure;Samples;Min_cycle;Max_cycle;Signal;HPM_P1;HPM_P2
2023/01/10 00:00:21;;;;;;;4.32;1.20;;;;;;;;;;6094397;23;20184;-72
2023/01/10 00:02:54;;;;;;;11.07;1.50;;;;;;;;;;6106556;23;20021;-71
2023/01/10 00:05:21;;;;;;;7.28;1.48;;;;;;;;;;6048814;23;20090;-72
2023/01/10 00:07:51;;;;;;;4.80;1.55;;;;;;;;;;6025444;23;20118;-72
2023/01/10 00:10:18;;;;;;;6.22;1.30;;;;;;;;;;6009207;23;20042;-72
2023/01/10 00:15:31;;;;;;;3.70;1.20;;;;;;;;;;6029789;23;20034;-72
2023/01/10 00:18:00;;;;;;;8.93;1.40;;;;;;;;;;6048799;23;20076;-71
2023/01/10 00:20:26;;;;;;;9.82;1.55;;;;;;;;;;6055910;23;20172;-72
2023/01/10 00:22:53;;;;;;;9.43;1.35;;;;;;;;;;6089791;23;20044;-72
2023/01/10 00:25:20;;;;;;;6.97;1.33;;;;;;;;;;6060747;23;20031;-72
2023/01/10 00:27:48;;;;;;;6.28;1.38;;;;;;;;;;6126574;23;20138;-73
2023/01/10 00:30:16;;;;;;;6.45;1.33;;;;;;;;;;6089638;23;20037;-72
2023/01/10 00:32:43;;;;;;;4.95;1.38;;;;;;;;;;6098640;23;20029;-71
2023/01/10 00:37:37;;;;;;;5.68;1.30;;;;;;;;;;6066943;23;20051;-73
2023/01/10 00:40:06;;;;;;;7.78;1.20;;;;;;;;;;6100336;23;20028;-72
2023/01/10 00:45:18;;;;;;;4.00;1.15;;;;;;;;;;6092670;23;20067;-73
2023/01/10 00:47:45;;;;;;;4.77;1.40;;;;;;;;;;6056632;23;20443;-71
2023/01/10 00:50:13;;;;;;;6.95;1.40;;;;;;;;;;5986608;23;20349;-71
2023/01/10 00:52:41;;;;;;;4.00;1.25;;;;;;;;;;6034108;23;20559;-71
2023/01/10 00:55:11;;;;;;;10.15;1.73;;;;;;;;;;6005646;23;20229;-71
2023/01/10 00:57:38;;;;;;;7.07;1.30;;;;;;;;;;6062097;23;20026;-72
2023/01/10 01:03:04;;;;;;;5.20;1.15;;;;;;;;;;6070628;23;20021;-71
2023/01/10 01:05:33;;;;;;;3.90;1.20;;;;;;;;;;6139637;23;20019;-72
2023/01/10 01:08:01;;;;;;;5.60;1.40;;;;;;;;;;6162452;23;20028;-72
2023/01/10 01:10:28;;;;;;;5.63;1.35;;;;;;;;;;6111720;23;20024;-72
2023/01/10 01:12:58;;;;;;;7.32;1.35;;;;;;;;;;6105273;23;20054;-72
2023/01/10 01:15:25;;;;;;;3.92;1.10;;;;;;;;;;6111618;23;20040;-72
2023/01/10 01:17:51;;;;;;;5.50;1.35;;;;;;;;;;6153389;23;20050;-73
2023/01/10 01:20:19;;;;;;;4.00;1.10;;;;;;;;;;6143800;23;20024;-72
2023/01/10 01:22:47;;;;;;;5.13;1.08;;;;;;;;;;6125913;23;20131;-72
2023/01/10 01:27:40;;;;;;;7.43;1.15;;;;;;;;;;5954658;23;20125;-73
2023/01/10 01:30:08;;;;;;;7.95;1.35;;;;;;;;;;6061640;23;20313;-72
2023/01/10 01:32:35;;;;;;;5.90;1.20;;;;;;;;;;6122283;23;20080;-71
2023/01/10 01:40:12;;;;;;;5.28;1.10;;;;;;;;;;5043631;27;21100;-71
2023/01/10 01:42:39;;;;;;;6.47;1.27;;;;;;;;;;5014061;28;20065;-71
2023/01/10 01:45:27;;;;;;;5.45;1.08;;;;;;;;;;5001162;28;20140;-69
2023/01/10 01:47:56;;;;;;;7.38;1.20;;;;;;;;;;4984711;28;20057;-71
2023/01/10 01:50:24;;;;;;;9.13;1.50;;;;;;;;;;5013445;28;20048;-70
2023/01/10 01:52:51;;;;;;;;;;;;;;;;;;5017307;28;20111;-70
2023/01/10 01:55:19;;;;;;;4.68;1.10;;;;;;;;;;4979234;28;19924;-71
2023/01/10 01:57:46;;;;;;;6.68;1.25;;;;;;;;;;4999115;28;20049;-71
2023/01/10 02:00:14;;;;;;;6.07;1.25;;;;;;;;;;5006236;28;20052;-70
2023/01/10 02:02:45;;;;;;;5.30;1.00;;;;;;;;;;5011031;28;20054;-69
2023/01/10 02:05:14;;;;;;;6.07;1.40;;;;;;;;;;4996709;28;20053;-70
2023/01/10 02:07:42;;;;;;;10.70;1.83;;;;;;;;;;5018039;28;20053;-69
2023/01/10 02:10:11;;;;;;;5.70;1.30;;;;;;;;;;4975343;28;20278;-70
2023/01/10 02:12:39;;;;;;;6.60;1.38;;;;;;;;;;5021491;28;20057;-70
2023/01/10 02:15:07;;;;;;;;;;;;;;;;;;4999262;28;20047;-70
2023/01/10 02:17:33;;;;;;;3.53;1.00;;;;;;;;;;5023689;28;19925;-70
2023/01/10 02:20:02;;;;;;;6.25;2.03;;;;;;;;;;5010690;28;20060;-70
2023/01/10 02:22:41;;;;;;;5.15;1.30;;;;;;;;;;4981525;28;20053;-70
2023/01/10 02:25:26;;;;;;;3.90;1.02;;;;;;;;;;4995079;28;20078;-72
2023/01/10 02:28:07;;;;;;;6.57;1.30;;;;;;;;;;5000910;28;20049;-70
2023/01/10 02:30:41;;;;;;;8.98;1.67;;;;;;;;;;4998912;28;20105;-70
2023/01/10 02:33:17;;;;;;;6.70;1.23;;;;;;;;;;4976406;28;20266;-70
2023/01/10 02:35:57;;;;;;;6.15;0.95;;;;;;;;;;4945895;28;20086;-70
2023/01/10 02:38:31;;;;;;;10.13;1.40;;;;;;;;;;4930598;28;20075;-71
2023/01/10 02:41:04;;;;;;;10.40;1.30;;;;;;;;;;4908608;28;20137;-70
2023/01/10 02:43:34;;;;;;;5.05;1.20;;;;;;;;;;4929664;28;20058;-70
2023/01/10 02:46:02;;;;;;;7.15;1.50;;;;;;;;;;4907629;28;20050;-70
2023/01/10 02:48:30;;;;;;;6.03;1.27;;;;;;;;;;4911716;28;20054;-70
2023/01/10 02:51:01;;;;;;;6.00;1.27;;;;;;;;;;4966935;28;20195;-70
2023/01/10 02:53:29;;;;;;;8.43;1.20;;;;;;;;;;4985699;28;20065;-71
2023/01/10 02:56:15;;;;;;;5.93;0.88;;;;;;;;;;4996566;28;20081;-70
2023/01/10 02:58:51;;;;;;;6.20;0.98;;;;;;;;;;4992084;28;20127;-70
2023/01/10 03:01:22;;;;;;;6.10;1.13;;;;;;;;;;4965661;28;20056;-70
2023/01/10 03:03:54;;;;;;;5.00;1.20;;;;;;;;;;4923839;28;20077;-70
2023/01/10 03:06:23;;;;;;;9.00;1.33;;;;;;;;;;5002319;28;20125;-70
2023/01/10 03:08:53;;;;;;;6.90;1.20;;;;;;;;;;4992200;28;20045;-70
2023/01/10 03:11:38;;;;;;;6.40;1.13;;;;;;;;;;4968759;28;20328;-70
2023/01/10 03:14:06;;;;;;;7.22;1.25;;;;;;;;;;4993832;28;20056;-70
2023/01/10 03:16:34;;;;;;;9.88;1.35;;;;;;;;;;5016005;28;20220;-70
2023/01/10 03:19:09;;;;;;;6.18;1.15;;;;;;;;;;4991992;28;20057;-70
2023/01/10 03:21:36;;;;;;;3.25;1.00;;;;;;;;;;4996385;28;20057;-70
2023/01/10 03:24:05;;;;;;;3.28;1.00;;;;;;;;;;4965930;28;20049;-70
2023/01/10 03:26:35;;;;;;;3.85;0.90;;;;;;;;;;4983449;28;20061;-70
2023/01/10 03:29:11;;;;;;;4.38;1.00;;;;;;;;;;4975274;28;20153;-70
2023/01/10 03:31:40;;;;;;;8.85;2.38;;;;;;;;;;4978192;28;20140;-70
2023/01/10 03:34:08;;;;;;;6.68;1.10;;;;;;;;;;4996875;28;20068;-70
2023/01/10 03:36:38;;;;;;;2.63;0.80;;;;;;;;;;4970604;28;20145;-69
2023/01/10 03:39:07;;;;;;;5.53;0.95;;;;;;;;;;4979457;28;20183;-69
2023/01/10 03:41:37;;;;;;;4.88;0.95;;;;;;;;;;4977144;28;20050;-71
2023/01/10 03:46:58;;;;;;;5.22;1.20;;;;;;;;;;4990803;28;20042;-70
2023/01/10 03:49:29;;;;;;;6.88;1.15;;;;;;;;;;4962269;28;20136;-69
2023/01/10 03:51:57;;;;;;;3.83;1.00;;;;;;;;;;5010529;28;20061;-70
2023/01/10 03:54:24;;;;;;;7.32;1.25;;;;;;;;;;4987572;28;20469;-69
2023/01/10 03:56:51;;;;;;;7.47;1.30;;;;;;;;;;4991593;28;20076;-69
2023/01/10 03:59:19;;;;;;;10.70;1.20;;;;;;;;;;4989139;28;20061;-70
2023/01/10 04:01:45;;;;;;;3.38;0.93;;;;;;;;;;4996827;28;20160;-70
2023/01/10 04:04:12;;;;;;;6.43;1.30;;;;;;;;;;4933267;28;20061;-70
2023/01/10 04:06:41;;;;;;;6.75;1.23;;;;;;;;;;5011601;28;20069;-70
2023/01/10 04:09:08;;;;;;;3.88;0.98;;;;;;;;;;4993058;28;20080;-70
2023/01/10 04:11:35;;;;;;;6.68;1.70;;;;;;;;;;4999469;28;20053;-70
2023/01/10 04:14:02;;;;;;;5.07;1.00;;;;;;;;;;4984234;28;20061;-70
2023/01/10 04:16:28;;;;;;;6.03;1.20;;;;;;;;;;4998765;28;20068;-70
2023/01/10 04:18:56;;;;;;;9.18;1.40;;;;;;;;;;4996657;28;20099;-70
2023/01/10 04:21:23;;;;;;;8.45;1.20;;;;;;;;;;4985758;28;20597;-70
2023/01/10 04:23:52;;;;;;;7.28;1.17;;;;;;;;;;4985087;28;20061;-70
2023/01/10 04:26:18;;;;;;;9.90;2.00;;;;;;;;;;5003620;28;20054;-70
2023/01/10 04:28:45;;;;;;;9.52;1.27;;;;;;;;;;4999739;28;20078;-70
2023/01/10 04:31:12;;;;;;;7.07;1.17;;;;;;;;;;4980214;28;20049;-70
2023/01/10 04:33:40;;;;;;;10.48;1.30;;;;;;;;;;4976500;28;20067;-70
2023/01/10 04:36:07;;;;;;;9.45;1.65;;;;;;;;;;4991103;28;20139;-71
2023/01/10 04:38:33;;;;;;;7.63;1.25;;;;;;;;;;5005295;28;20095;-70
2023/01/10 04:41:05;;;;;;;6.55;1.55;;;;;;;;;;4995388;28;20143;-70
2023/01/10 04:43:32;;;;;;;4.95;1.15;;;;;;;;;;4964694;28;20062;-70
2023/01/10 04:45:59;;;;;;;3.22;1.13;;;;;;;;;;5002116;28;20080;-70
2023/01/10 04:48:26;;;;;;;6.32;1.40;;;;;;;;;;4978694;28;20050;-70
2023/01/10 04:50:53;;;;;;;6.18;1.40;;;;;;;;;;5011648;28;20369;-70
2023/01/10 04:53:20;;;;;;;6.40;1.30;;;;;;;;;;4959906;28;20061;-70
2023/01/10 04:55:47;;;;;;;5.82;1.63;;;;;;;;;;4995416;28;20060;-69
2023/01/10 04:58:16;;;;;;;7.25;1.30;;;;;;;;;;4989522;28;20057;-69
2023/01/10 05:00:42;;;;;;;5.43;1.55;;;;;;;;;;4986479;28;20072;-70
2023/01/10 05:03:09;;;;;;;4.75;1.40;;;;;;;;;;4976052;28;20087;-70
2023/01/10 05:05:36;;;;;;;7.40;1.30;;;;;;;;;;4963180;28;20080;-70
2023/01/10 05:08:03;;;;;;;7.65;1.23;;;;;;;;;;5011389;28;20065;-70
2023/01/10 05:10:30;;;;;;;10.60;1.38;;;;;;;;;;5008876;28;20084;-70
2023/01/10 05:12:57;;;;;;;6.68;1.95;;;;;;;;;;4981010;28;20083;-70
2023/01/10 05:15:26;;;;;;;10.82;1.40;;;;;;;;;;4995901;28;20274;-70
2023/01/10 05:17:57;;;;;;;6.95;1.00;;;;;;;;;;5002285;28;20049;-70
2023/01/10 05:20:24;;;;;;;4.45;1.08;;;;;;;;;;4997924;28;20165;-70
2023/01/10 05:22:54;;;;;;;6.47;1.08;;;;;;;;;;4993526;28;20286;-69
2023/01/10 05:25:24;;;;;;;4.47;1.10;;;;;;;;;;4960050;28;20061;-70
2023/01/10 05:27:51;;;;;;;6.18;1.25;;;;;;;;;;4995975;28;20057;-69
2023/01/10 05:30:18;;;;;;;7.30;1.30;;;;;;;;;;5010228;28;20056;-70
2023/01/10 05:32:46;;;;;;;4.25;0.95;;;;;;;;;;4998204;28;20061;-70
2023/01/10 05:35:13;;;;;;;8.50;1.75;;;;;;;;;;4968832;28;20060;-70
2023/01/10 05:37:40;;;;;;;6.88;1.60;;;;;;;;;;5004175;28;20060;-71
2023/01/10 05:40:10;;;;;;;7.07;1.48;;;;;;;;;;4969035;28;20057;-70
2023/01/10 05:42:37;;;;;;;5.45;1.30;;;;;;;;;;4986541;28;20054;-70
2023/01/10 05:45:04;;;;;;;7.70;1.35;;;;;;;;;;4972876;28;20060;-71
2023/01/10 05:47:33;;;;;;;8.35;1.33;;;;;;;;;;4969048;28;20099;-70
2023/01/10 05:50:02;;;;;;;5.68;1.20;;;;;;;;;;4998707;28;20128;-70
2023/01/10 05:52:28;;;;;;;8.57;1.55;;;;;;;;;;4966211;28;20065;-70
2023/01/10 05:54:55;;;;;;;7.05;1.70;;;;;;;;;;4973554;28;20050;-72
2023/01/10 05:57:23;;;;;;;8.88;1.45;;;;;;;;;;4979013;28;20088;-73
2023/01/10 05:59:50;;;;;;;4.68;1.30;;;;;;;;;;4944463;28;20054;-73
2023/01/10 06:02:21;;;;;;;12.55;1.67;;;;;;;;;;4946584;28;20046;-72
2023/01/10 06:18:08;;;;;;;4.85;1.20;;;;;;;;;;6124226;22;2105288;-71
2023/01/10 06:20:35;;;;;;;6.05;1.17;;;;;;;;;;6144698;23;20470;-70
2023/01/10 06:23:03;;;;;;;10.98;1.80;;;;;;;;;;6118186;23;20055;-70
2023/01/10 06:25:30;;;;;;;6.50;1.02;;;;;;;;;;6070189;23;21488;-70
2023/01/10 06:27:57;;;;;;;6.45;1.40;;;;;;;;;;6187737;22;20036;-72
2023/01/10 06:30:24;;;;;;;12.13;1.80;;;;;;;;;;6147059;23;20078;-72
2023/01/10 06:32:50;;;;;;;5.45;1.40;;;;;;;;;;6146120;23;20059;-72
2023/01/10 06:35:21;;;;;;;8.40;2.00;;;;;;;;;;6081703;23;20035;-72
2023/01/10 06:37:48;;;;;;;8.95;1.75;;;;;;;;;;6156482;23;20135;-71
2023/01/10 06:40:14;;;;;;;6.45;1.80;;;;;;;;;;6146751;23;20025;-72
2023/01/10 06:42:41;;;;;;;6.13;1.65;;;;;;;;;;6146036;23;20130;-71
2023/01/10 06:49:19;;;;;;;5.90;1.60;;;;;;;;;;5962188;23;20099;-72
2023/01/10 07:20:55;;;;;;;6.72;1.98;;;;;;;;;;6158243;22;1479164;-72
2023/01/10 07:23:22;;;;;;;8.25;1.83;;;;;;;;;;6115284;23;20145;-72
2023/01/10 07:31:06;;;;;;;7.35;1.70;;;;;;;;;;5014185;27;20456;-69
2023/01/10 07:34:13;;;;;;;;;;;;;;;;;;;;;
2023/01/10 07:37:09;;;;;;;11.25;2.50;;;;;;;;;;4961178;28;20054;-73
2023/01/10 07:43:23;;;;;;;5.43;1.40;;;;;;;;;;4981101;28;20042;-71
2023/01/10 07:51:59;;;;;;;11.88;2.20;;;;;;;;;;4954782;28;20057;-71
2023/01/10 07:57:48;;;;;;;6.43;1.60;;;;;;;;;;4982205;28;20131;-71
2023/01/10 08:06:48;;;;;;;10.15;1.70;;;;;;;;;;4894919;28;20065;-72
2023/01/10 08:10:00;;;;;;;10.10;2.08;;;;;;;;;;5002109;28;20042;-72
2023/01/10 08:12:54;;;;;;;12.95;2.35;;;;;;;;;;4969338;28;20144;-71
2023/01/10 08:18:42;;;;;;;8.68;1.73;;;;;;;;;;4907553;28;20062;-72
2023/01/10 08:24:46;;;;;;;7.38;1.90;;;;;;;;;;4944498;28;20097;-72
2023/01/10 08:27:35;;;;;;;11.73;1.98;;;;;;;;;;4884487;28;20064;-72
2023/01/10 08:30:54;;;;;;;10.10;1.85;;;;;;;;;;4921806;28;20117;-72
2023/01/10 09:31:26;;;;;;;9.45;1.52;;;;;;;;;;6357260;22;20022;-71
2023/01/10 09:34:15;;;;;;;;;;;;;;;;;;;;;
2023/01/10 09:42:32;;;;;;;8.13;1.52;;;;;;;;;;6175517;22;20028;-71
2023/01/10 09:45:09;;;;;;;7.43;1.63;;;;;;;;;;6208893;22;20023;-71
2023/01/10 09:47:45;;;;;;;11.50;2.25;;;;;;;;;;6135837;23;20029;-71
2023/01/10 09:50:27;;;;;;;9.70;2.75;;;;;;;;;;6145991;23;20053;-71
2023/01/10 09:52:58;;;;;;;7.20;1.65;;;;;;;;;;6118011;22;20051;-72
2023/01/10 09:55:29;;;;;;;7.80;1.95;;;;;;;;;;6167407;22;20294;-71
2023/01/10 09:58:14;;;;;;;;;;;;;;;;;;;;;
2023/01/10 10:00:56;;;;;;;10.15;1.80;;;;;;;;;;6147349;22;20126;-71
2023/01/10 10:03:30;;;;;;;11.07;1.50;;;;;;;;;;6184851;23;20407;-71
2023/01/10 10:06:33;;;;;;;11.50;2.03;;;;;;;;;;6141227;22;20024;-71
2023/01/10 10:09:34;;;;;;;13.25;1.95;;;;;;;;;;6215853;22;20332;-71
2023/01/10 10:12:29;;;;;;;8.32;1.60;;;;;;;;;;6183625;23;20028;-71
2023/01/10 15:21:41;;;;;;;;;;;;;;;;;;;;;
2023/01/10 15:34:50;;;;;;;9.82;1.73;;;;;;;;;;4876479;29;20128;-75
2023/01/10 15:37:21;;;;;;;12.40;1.60;;;;;;;;;;4889892;28;20111;-77
2023/01/10 15:39:48;;;;;;;4.57;1.40;;;;;;;;;;4819374;29;20060;-77
2023/01/10 15:42:31;;;;;;;7.47;2.03;;;;;;;;;;4896970;28;20060;-78
2023/01/10 16:01:21;;;;;;;4.97;1.40;;;;;;;;;;5051644;27;20425;-78
2023/01/10 16:04:13;;;;;;;6.25;1.88;;;;;;;;;;5086091;28;20051;-74
2023/01/10 16:06:41;;;;;;;6.72;1.15;;;;;;;;;;5046147;28;20053;-73
2023/01/10 16:09:09;;;;;;;5.97;1.42;;;;;;;;;;5000827;28;20071;-78
2023/01/10 16:14:36;;;;;;;11.75;1.30;;;;;;;;;;5029740;28;20040;-74
2023/01/10 16:17:05;;;;;;;6.15;1.58;;;;;;;;;;5055745;28;20141;-73
2023/01/10 16:21:59;;;;;;;7.53;1.58;;;;;;;;;;4901577;28;20058;-79
2023/01/10 16:26:51;;;;;;;7.22;1.30;;;;;;;;;;4934832;28;20013;-82
2023/01/10 16:29:21;;;;;;;7.80;1.23;;;;;;;;;;4932706;28;20058;-80
2023/01/10 16:31:48;;;;;;;7.03;1.33;;;;;;;;;;4969574;28;20061;-78
2023/01/10 16:34:15;;;;;;;4.82;1.50;;;;;;;;;;5002909;28;20053;-86
2023/01/10 16:36:42;;;;;;;11.23;1.80;;;;;;;;;;4972909;28;20049;-79
2023/01/10 16:43:52;;;;;;;8.18;1.67;;;;;;;;;;4947717;28;20126;-78
2023/01/10 16:46:22;;;;;;;9.48;1.95;;;;;;;;;;4938571;28;20166;-79
2023/01/10 16:48:51;;;;;;;6.13;1.73;;;;;;;;;;4900999;28;20099;-79
2023/01/10 16:51:19;;;;;;;7.88;1.73;;;;;;;;;;4906682;28;20094;-74
2023/01/10 17:01:20;;;;;;;5.03;1.38;;;;;;;;;;5016144;27;20466;-81
2023/01/10 17:03:47;;;;;;;5.03;1.33;;;;;;;;;;4960225;28;20057;-73
2023/01/10 17:06:15;;;;;;;8.05;1.63;;;;;;;;;;4930648;28;20073;-80
2023/01/10 17:08:43;;;;;;;7.68;1.65;;;;;;;;;;4932655;28;20058;-79
2023/01/10 17:13:39;;;;;;;4.57;1.40;;;;;;;;;;4908118;28;20039;-73
2023/01/10 17:21:24;;;;;;;5.30;1.58;;;;;;;;;;5042957;27;20451;-83
2023/01/10 17:23:55;;;;;;;6.18;1.40;;;;;;;;;;5002943;28;20059;-74
2023/01/10 17:26:32;;;;;;;4.00;1.30;;;;;;;;;;5006390;28;20092;-81
2023/01/10 17:31:44;;;;;;;6.43;1.45;;;;;;;;;;4931860;28;20431;-77
2023/01/10 17:34:10;;;;;;;;;;;;;;;;;;4960962;28;20151;-73
2023/01/10 17:36:38;;;;;;;4.05;1.30;;;;;;;;;;4935194;28;20320;-76
2023/01/10 17:41:52;;;;;;;6.20;1.40;;;;;;;;;;4945509;28;20095;-76
2023/01/10 17:44:19;;;;;;;4.82;1.27;;;;;;;;;;4964433;28;20238;-75
2023/01/10 17:46:51;;;;;;;3.42;1.08;;;;;;;;;;4946303;28;20051;-74
2023/01/10 17:49:18;;;;;;;3.30;1.00;;;;;;;;;;4895510;28;20103;-76
2023/01/10 17:51:45;;;;;;;4.93;1.08;;;;;;;;;;4935305;28;20061;-73
2023/01/10 17:54:13;;;;;;;4.95;1.33;;;;;;;;;;4939455;28;20055;-76
2023/01/10 17:56:40;;;;;;;4.55;1.20;;;;;;;;;;4952338;28;20057;-74
2023/01/10 18:04:14;;;;;;;2.75;1.05;;;;;;;;;;5052347;27;20414;-78
2023/01/10 18:06:44;;;;;;;3.47;1.40;;;;;;;;;;5013913;28;20050;-76
2023/01/10 18:09:13;;;;;;;2.72;1.23;;;;;;;;;;4959023;28;20133;-76
2023/01/10 18:11:41;;;;;;;3.55;1.40;;;;;;;;;;5003106;28;20057;-81
2023/01/10 18:16:55;;;;;;;4.00;1.38;;;;;;;;;;5001892;28;20185;-75
2023/01/10 18:19:23;;;;;;;3.30;1.40;;;;;;;;;;4975909;28;20086;-76
2023/01/10 18:21:50;;;;;;;4.28;1.20;;;;;;;;;;4999655;28;20778;-78
2023/01/10 18:24:17;;;;;;;4.32;1.20;;;;;;;;;;5009752;28;20041;-72
2023/01/10 18:26:44;;;;;;;7.38;1.60;;;;;;;;;;4999061;28;20062;-78
2023/01/10 18:34:24;;;;;;;2.67;1.20;;;;;;;;;;5007345;28;20473;-79
2023/01/10 18:36:51;;;;;;;2.33;1.10;;;;;;;;;;4911095;28;20059;-74
2023/01/10 18:39:18;;;;;;;3.05;1.20;;;;;;;;;;4882833;28;20137;-75
2023/01/10 18:41:48;;;;;;;2.22;1.13;;;;;;;;;;4886238;28;20070;-77
2023/01/10 18:44:15;;;;;;;2.38;1.35;;;;;;;;;;4887284;28;20066;-78
2023/01/10 18:46:42;;;;;;;2.85;1.30;;;;;;;;;;4871159;28;20054;-73
2023/01/10 18:49:16;;;;;;;3.72;1.25;;;;;;;;;;4863206;28;20061;-73
2023/01/10 18:54:31;;;;;;;2.95;1.27;;;;;;;;;;4982907;27;20191;-71
2023/01/10 18:56:58;;;;;;;2.47;1.30;;;;;;;;;;4913003;28;20096;-77
2023/01/10 19:04:35;;;;;;;2.33;1.20;;;;;;;;;;5036128;27;20419;-78
2023/01/10 19:07:05;;;;;;;5.35;1.30;;;;;;;;;;4986230;28;20080;-73
2023/01/10 19:09:35;;;;;;;2.45;1.48;;;;;;;;;;4959887;28;20054;-75
2023/01/10 19:12:02;;;;;;;4.38;1.38;;;;;;;;;;4941446;28;20053;-77
2023/01/10 19:14:29;;;;;;;2.65;1.38;;;;;;;;;;4949016;28;20115;-76
2023/01/10 19:16:56;;;;;;;3.67;1.40;;;;;;;;;;4938209;28;20046;-74
2023/01/10 19:19:23;;;;;;;3.50;1.20;;;;;;;;;;4942416;28;20046;-79
2023/01/10 19:21:51;;;;;;;3.08;1.30;;;;;;;;;;4898048;28;20115;-78
2023/01/10 19:24:20;;;;;;;2.55;1.20;;;;;;;;;;4986819;28;20121;-72
2023/01/10 19:26:49;;;;;;;;;;;;;;;;;;4962034;28;20186;-77
2023/01/10 19:29:15;;;;;;;4.20;1.40;;;;;;;;;;4938422;28;19932;-72
2023/01/10 19:31:43;;;;;;;3.97;1.38;;;;;;;;;;4946754;28;20200;-74
2023/01/10 19:34:10;;;;;;;3.17;1.45;;;;;;;;;;5002782;28;20056;-75
2023/01/10 19:36:40;;;;;;;2.10;1.13;;;;;;;;;;4966208;28;20044;-73
2023/01/10 19:39:11;;;;;;;4.05;1.42;;;;;;;;;;5005900;28;20056;-75
2023/01/10 19:41:38;;;;;;;4.45;1.20;;;;;;;;;;4992232;28;20068;-72
2023/01/10 19:44:06;;;;;;;1.77;1.13;;;;;;;;;;4994579;28;20076;-78
2023/01/10 19:46:35;;;;;;;2.40;1.25;;;;;;;;;;5001681;28;20049;-75
2023/01/10 19:49:06;;;;;;;3.58;1.20;;;;;;;;;;5012395;28;20080;-76
2023/01/10 19:51:34;;;;;;;2.40;1.20;;;;;;;;;;4973123;28;21761;-73
2023/01/10 19:54:01;;;;;;;1.92;1.10;;;;;;;;;;4957929;28;20110;-72
2023/01/10 20:02:56;;;;;;;2.65;1.15;;;;;;;;;;5062142;27;20134;-78
2023/01/10 20:05:26;;;;;;;2.25;1.27;;;;;;;;;;5010058;28;20048;-78
2023/01/10 20:07:52;;;;;;;2.95;1.45;;;;;;;;;;4997847;28;20097;-73
2023/01/10 20:10:19;;;;;;;3.03;1.27;;;;;;;;;;4968538;28;20213;-74
2023/01/10 20:12:46;;;;;;;1.80;1.10;;;;;;;;;;4886413;28;20483;-76
2023/01/10 20:15:13;;;;;;;2.55;1.15;;;;;;;;;;5028781;28;20072;-74
2023/01/10 20:17:42;;;;;;;2.42;1.23;;;;;;;;;;5025384;28;20142;-79
2023/01/10 20:20:11;;;;;;;2.97;1.30;;;;;;;;;;5025383;28;20148;-70
2023/01/10 20:22:39;;;;;;;3.40;1.33;;;;;;;;;;4979976;28;20060;-74
2023/01/10 20:25:14;;;;;;;2.53;1.30;;;;;;;;;;5023858;28;20053;-73
2023/01/10 20:27:42;;;;;;;3.47;1.20;;;;;;;;;;4911168;28;20069;-75
2023/01/10 20:30:12;;;;;;;4.35;1.50;;;;;;;;;;4927256;28;20058;-72
2023/01/10 20:50:51;;;;;;;1.85;1.20;;;;;;;;;;6150976;21;2041701;-73
2023/01/10 20:53:17;;;;;;;2.60;1.35;;;;;;;;;;6156422;22;20071;-77
2023/01/10 20:55:44;;;;;;;2.95;1.30;;;;;;;;;;6176856;23;20031;-74
2023/01/10 20:58:11;;;;;;;2.85;1.40;;;;;;;;;;6188625;22;20047;-74
2023/01/10 21:00:41;;;;;;;3.45;1.33;;;;;;;;;;6100836;23;20051;-74
2023/01/10 21:05:54;;;;;;;3.28;1.40;;;;;;;;;;4998231;27;20430;-70
2023/01/10 21:08:23;;;;;;;1.83;1.10;;;;;;;;;;4986579;28;20096;-73
2023/01/10 21:10:53;;;;;;;3.55;1.50;;;;;;;;;;4918926;28;20083;-71
2023/01/10 21:18:10;;;;;;;4.15;1.33;;;;;;;;;;4862638;29;20048;-74
2023/01/10 21:20:42;;;;;;;2.42;1.25;;;;;;;;;;4896312;28;20112;-73
2023/01/10 22:58:14;;;;;;;2.90;1.25;;;;;;;;;;6143460;22;2798473;-76
2023/01/10 23:00:41;;;;;;;3.10;1.40;;;;;;;;;;6142057;23;20120;-71
2023/01/10 23:03:12;;;;;;;2.90;1.45;;;;;;;;;;6055067;23;20025;-72
2023/01/10 23:05:57;;;;;;;3.75;1.70;;;;;;;;;;6142206;23;20041;-72
2023/01/10 23:08:24;;;;;;;3.95;1.60;;;;;;;;;;6108897;23;20028;-74
2023/01/10 23:10:52;;;;;;;4.40;1.60;;;;;;;;;;6082362;23;20121;-71
2023/01/10 23:13:22;;;;;;;4.95;1.60;;;;;;;;;;6042800;23;20847;-73
2023/01/10 23:15:55;;;;;;;2.45;1.48;;;;;;;;;;6037103;23;20097;-72
2023/01/10 23:18:21;;;;;;;4.68;1.88;;;;;;;;;;6103032;23;20021;-71
2023/01/10 23:20:50;;;;;;;4.57;1.77;;;;;;;;;;6086150;23;20028;-73
2023/01/10 23:26:06;;;;;;;4.22;1.65;;;;;;;;;;4993324;27;1506383;-75
2023/01/10 23:28:36;;;;;;;3.95;1.30;;;;;;;;;;5004032;28;20041;-72
2023/01/10 23:36:20;;;;;;;5.78;1.65;;;;;;;;;;4896503;28;20050;-76
2023/01/10 23:45:50;;;;;;;2.72;1.58;;;;;;;;;;5064479;27;20415;-71
2023/01/10 23:48:26;;;;;;;2.55;1.40;;;;;;;;;;5018634;28;20136;-70
2023/01/10 23:50:59;;;;;;;3.50;1.80;;;;;;;;;;4996075;28;20043;-72
